Mansfield Hollow, Connecticut
Current Conditions -  °F | °C
As of 3:52 AM on Wednesday 28 Jan 2015 (Local Time) from KIJD Reporting Station
Overcast Overcast  
Wind Chill: -19°   Ceiling: 5000
Heat Index: -10°   Visibility: 10mi
Dew Point: -18°   Wind: 15mph
Humidity: 54%   Direction: 320°NW
Pressure: 29.82"   Gusts: 21mph
Location:  41.7742°N, 72.196°W
Report Text: KIJD 280852Z AUTO 32013G18KT 10SM OVC050 M10/M18 A2982 RMK AO2 SLP100 60000 T11001178 53025
Loading
Personal Weather Stations






























Interactive Weather Map New forecast layout! Learn more

10-Day Weather Forecast

Advertisements
Track Severe Weather on mobile